Time;durP1;ratioP1;P1;durP2;ratioP2;P2;SDS_P1;SDS_P2;PMS_P1;PMS_P2;Temp;Humidity;BMP_temperature;BMP_pressure;BME280_temperature;BME280_humidity;BME280_pressure;Samples;Min_cycle;Max_cycle;Signal;HPM_P1;HPM_P2
2022/07/25 04:02:21;;;;;;;13.82;12.25;;;17.50;99.90;;;;;;5083442;23;20500;-74
2022/07/25 04:04:46;;;;;;;15.20;12.85;;;17.50;99.90;;;;;;4976468;28;20409;-74
2022/07/25 04:07:12;;;;;;;15.25;13.27;;;17.50;99.90;;;;;;4978628;28;20035;-74
2022/07/25 04:09:37;;;;;;;19.15;14.32;;;17.50;99.90;;;;;;4978721;28;20404;-74
2022/07/25 04:12:03;;;;;;;18.27;14.75;;;17.50;99.90;;;;;;4978069;28;20497;-74
2022/07/25 04:14:29;;;;;;;16.67;14.98;;;17.60;99.90;;;;;;4978775;28;20446;-74
2022/07/25 04:16:54;;;;;;;17.58;13.80;;;17.60;99.90;;;;;;4978552;28;20038;-74
2022/07/25 04:19:20;;;;;;;15.15;13.23;;;17.60;99.90;;;;;;4977952;28;20393;-74
2022/07/25 04:21:45;;;;;;;16.77;14.40;;;17.70;99.90;;;;;;4978318;28;20054;-75
2022/07/25 04:24:11;;;;;;;15.77;13.65;;;17.70;99.90;;;;;;4978273;28;20035;-74
2022/07/25 04:26:36;;;;;;;15.98;14.13;;;17.80;99.90;;;;;;4978121;28;20035;-72
2022/07/25 04:29:02;;;;;;;18.60;14.30;;;17.70;99.90;;;;;;4978404;28;20027;-69
2022/07/25 04:31:28;;;;;;;16.70;13.18;;;17.70;99.90;;;;;;4978002;28;20027;-69
2022/07/25 04:33:53;;;;;;;15.70;14.00;;;17.70;99.90;;;;;;4977998;28;20066;-69
2022/07/25 04:36:19;;;;;;;16.27;14.50;;;17.80;99.90;;;;;;4977587;28;20054;-69
2022/07/25 04:38:44;;;;;;;16.58;14.80;;;17.70;99.90;;;;;;4978253;28;20066;-69
2022/07/25 04:41:10;;;;;;;17.60;14.93;;;17.80;99.90;;;;;;4978040;28;20529;-69
2022/07/25 04:43:36;;;;;;;21.45;15.32;;;17.80;99.90;;;;;;4978054;28;20027;-69
2022/07/25 04:46:01;;;;;;;16.77;14.98;;;17.80;99.90;;;;;;4977835;28;20553;-69
2022/07/25 04:48:27;;;;;;;18.48;16.48;;;17.80;99.90;;;;;;4978125;28;20595;-69
2022/07/25 04:50:53;;;;;;;18.67;15.98;;;17.90;99.90;;;;;;4977933;28;20035;-69
2022/07/25 04:53:18;;;;;;;18.30;16.30;;;17.90;99.90;;;;;;4978317;28;20039;-69
2022/07/25 04:55:44;;;;;;;17.98;15.60;;;17.90;99.90;;;;;;4977785;28;20031;-69
2022/07/25 04:58:10;;;;;;;17.38;15.55;;;18.00;99.90;;;;;;4978222;28;20482;-69
2022/07/25 05:00:35;;;;;;;17.55;14.10;;;18.00;99.90;;;;;;4977335;28;20591;-68
2022/07/25 05:03:01;;;;;;;17.25;13.70;;;18.10;99.90;;;;;;4977393;28;20150;-69
2022/07/25 05:05:26;;;;;;;18.88;14.27;;;18.10;99.90;;;;;;4977227;28;20122;-69
2022/07/25 05:07:57;;;;;;;15.23;13.30;;;18.20;99.90;;;;;;4977571;28;20111;-69
2022/07/25 05:10:24;;;;;;;15.35;13.73;;;18.10;99.90;;;;;;4977275;28;20046;-68
2022/07/25 05:12:49;;;;;;;17.55;14.30;;;18.20;99.90;;;;;;4977546;28;20046;-69
2022/07/25 05:15:15;;;;;;;14.38;12.80;;;18.30;99.90;;;;;;4977223;28;20042;-69
2022/07/25 05:17:41;;;;;;;17.88;14.18;;;18.40;99.90;;;;;;4977518;28;20463;-68
2022/07/25 05:20:07;;;;;;;16.52;13.77;;;18.50;99.90;;;;;;4977581;28;20401;-68
2022/07/25 05:22:32;;;;;;;16.88;14.77;;;18.60;99.90;;;;;;4975783;28;20105;-68
2022/07/25 05:24:59;;;;;;;19.50;14.05;;;18.60;99.90;;;;;;4977122;28;20093;-69
2022/07/25 05:27:24;;;;;;;16.25;13.18;;;18.70;99.90;;;;;;4977431;28;20031;-69
2022/07/25 05:29:50;;;;;;;16.10;14.32;;;18.80;99.90;;;;;;4977536;28;20029;-69
2022/07/25 05:32:15;;;;;;;15.27;12.55;;;18.90;99.90;;;;;;4977197;28;20047;-68
2022/07/25 05:34:41;;;;;;;14.85;12.80;;;19.00;99.90;;;;;;4976902;28;21158;-69
2022/07/25 05:37:06;;;;;;;15.25;13.25;;;19.10;99.90;;;;;;4977173;28;20107;-68
2022/07/25 05:39:32;;;;;;;14.10;12.25;;;19.20;99.90;;;;;;4974079;28;20035;-68
2022/07/25 05:41:57;;;;;;;16.55;13.73;;;19.30;99.90;;;;;;4972700;28;20054;-69
2022/07/25 05:44:23;;;;;;;14.25;12.75;;;19.40;99.90;;;;;;4977113;28;20465;-68
2022/07/25 05:46:48;;;;;;;13.32;11.95;;;19.60;99.90;;;;;;4973687;28;20520;-69
2022/07/25 05:49:14;;;;;;;14.57;11.98;;;19.60;99.90;;;;;;4964854;28;20442;-69
2022/07/25 05:51:40;;;;;;;13.90;12.38;;;19.70;99.90;;;;;;4967172;28;20036;-69
2022/07/25 05:54:05;;;;;;;19.25;14.18;;;19.80;99.90;;;;;;4974730;28;20488;-69
2022/07/25 05:56:31;;;;;;;19.80;12.77;;;19.90;99.90;;;;;;4976584;28;20374;-69
2022/07/25 05:58:56;;;;;;;16.15;12.98;;;20.00;99.90;;;;;;4975434;28;20511;-69
2022/07/25 06:01:22;;;;;;;13.85;12.38;;;20.10;99.90;;;;;;4975618;28;20056;-69
2022/07/25 06:03:47;;;;;;;22.98;13.02;;;20.20;99.90;;;;;;4976801;28;20039;-69
2022/07/25 06:06:13;;;;;;;17.50;12.82;;;20.30;99.90;;;;;;4976176;28;20045;-69
2022/07/25 06:08:39;;;;;;;16.33;12.07;;;20.40;99.90;;;;;;4976778;28;20362;-74
2022/07/25 06:11:06;;;;;;;15.70;12.77;;;20.40;99.90;;;;;;4976146;28;20042;-70
2022/07/25 06:13:32;;;;;;;14.65;12.02;;;20.60;99.90;;;;;;4976857;28;20027;-70
2022/07/25 06:15:58;;;;;;;13.32;11.68;;;20.60;99.90;;;;;;4976201;28;20035;-69
2022/07/25 06:18:24;;;;;;;14.15;11.85;;;20.90;99.90;;;;;;4976688;28;20393;-70
2022/07/25 06:20:50;;;;;;;13.38;11.40;;;20.90;99.90;;;;;;4975578;28;20078;-70
2022/07/25 06:23:16;;;;;;;18.08;12.05;;;21.00;99.90;;;;;;4976488;28;20584;-70
2022/07/25 06:25:42;;;;;;;15.40;11.68;;;21.10;99.90;;;;;;4976081;28;20097;-70
2022/07/25 06:28:08;;;;;;;13.43;11.65;;;21.20;99.90;;;;;;4976694;28;20031;-70
2022/07/25 06:30:34;;;;;;;13.10;10.75;;;21.30;99.90;;;;;;4974700;28;20079;-70
2022/07/25 06:32:59;;;;;;;13.38;11.10;;;21.50;99.90;;;;;;4975982;28;20027;-70
2022/07/25 06:35:25;;;;;;;11.35;10.18;;;21.70;99.90;;;;;;4975858;28;20441;-70
2022/07/25 06:37:50;;;;;;;13.02;10.80;;;21.90;99.90;;;;;;4976425;28;20397;-70
2022/07/25 06:40:16;;;;;;;11.90;10.40;;;22.10;99.90;;;;;;4975829;28;20035;-70
2022/07/25 06:42:43;;;;;;;11.48;10.27;;;22.20;99.90;;;;;;4976392;28;20043;-70
2022/07/25 06:45:10;;;;;;;11.90;10.32;;;22.40;99.90;;;;;;4975637;28;20095;-70
2022/07/25 06:47:40;;;;;;;14.40;10.32;;;22.50;99.90;;;;;;4974131;28;20084;-70
2022/07/25 06:50:09;;;;;;;12.45;10.32;;;22.60;99.90;;;;;;4976300;28;20505;-70
2022/07/25 06:52:34;;;;;;;11.55;9.90;;;22.80;99.90;;;;;;4976832;28;20520;-70
2022/07/25 06:55:01;;;;;;;10.70;9.57;;;22.90;99.90;;;;;;4975667;28;20035;-70
2022/07/25 06:57:27;;;;;;;12.98;9.60;;;23.10;99.90;;;;;;4976046;28;20039;-70
2022/07/25 06:59:52;;;;;;;11.35;9.73;;;23.30;99.90;;;;;;4976069;28;20039;-70
2022/07/25 07:02:18;;;;;;;11.23;10.10;;;23.50;99.90;;;;;;4975622;28;20047;-69
2022/07/25 07:04:44;;;;;;;11.70;9.20;;;23.70;99.90;;;;;;4975867;28;20031;-70
2022/07/25 07:07:09;;;;;;;10.55;9.55;;;23.80;99.90;;;;;;4976246;28;20069;-70
2022/07/25 07:09:35;;;;;;;10.77;9.65;;;24.00;99.90;;;;;;4975868;28;20035;-70
2022/07/25 07:12:00;;;;;;;10.38;9.30;;;24.10;99.90;;;;;;4975883;28;20031;-70
2022/07/25 07:14:26;;;;;;;9.88;8.93;;;24.50;99.90;;;;;;4975488;28;20058;-70
2022/07/25 07:16:52;;;;;;;10.30;9.38;;;24.70;99.90;;;;;;4975548;28;20122;-70
2022/07/25 07:19:17;;;;;;;9.98;8.98;;;24.90;99.90;;;;;;4975648;28;20046;-70
2022/07/25 07:21:44;;;;;;;10.48;9.48;;;25.00;99.90;;;;;;4975373;28;20050;-70
2022/07/25 07:24:11;;;;;;;10.40;9.30;;;25.30;99.90;;;;;;4975287;28;20074;-70
2022/07/25 07:26:36;;;;;;;9.57;8.38;;;25.40;99.90;;;;;;4975391;28;20476;-70
2022/07/25 07:29:03;;;;;;;10.90;8.40;;;25.60;99.70;;;;;;4975088;28;20043;-70
2022/07/25 07:31:28;;;;;;;9.80;8.48;;;25.80;98.10;;;;;;4974161;28;20091;-73
2022/07/25 07:33:54;;;;;;;10.45;8.98;;;26.10;97.60;;;;;;4975921;28;20091;-70
2022/07/25 07:36:20;;;;;;;9.43;8.52;;;26.50;95.20;;;;;;4975627;28;20039;-72
2022/07/25 07:38:47;;;;;;;10.00;9.00;;;26.90;93.80;;;;;;4975260;28;20037;-75
2022/07/25 07:41:13;;;;;;;10.82;8.85;;;27.10;93.60;;;;;;4975652;28;20494;-77
2022/07/25 07:43:38;;;;;;;10.35;8.60;;;27.20;92.80;;;;;;4975564;28;20035;-73
2022/07/25 07:46:04;;;;;;;10.00;9.10;;;27.40;92.60;;;;;;4975128;28;20074;-73
2022/07/25 07:48:30;;;;;;;9.38;8.43;;;27.60;92.10;;;;;;4961013;28;20043;-73
2022/07/25 07:50:57;;;;;;;11.20;8.18;;;27.80;91.40;;;;;;4958271;28;20101;-73
2022/07/25 07:55:42;;;;;;;8.90;8.05;;;28.10;90.60;;;;;;4975710;28;20032;-79
2022/07/25 07:56:08;;;;;;;9.52;8.63;;;28.40;90.20;;;;;;4974795;28;20133;-71
2022/07/25 07:58:34;;;;;;;9.80;8.80;;;28.70;88.50;;;;;;4975233;28;20492;-73
2022/07/25 08:00:59;;;;;;;9.88;8.98;;;28.90;85.50;;;;;;4974707;28;20047;-74
2022/07/25 08:03:25;;;;;;;10.00;8.35;;;29.10;85.00;;;;;;4975630;28;20039;-73
2022/07/25 08:05:51;;;;;;;9.85;8.63;;;29.40;84.20;;;;;;4975087;28;20082;-77
2022/07/25 08:08:16;;;;;;;9.57;8.57;;;29.50;84.30;;;;;;4975116;28;20040;-73
2022/07/25 08:10:45;;;;;;;11.35;9.13;;;29.60;82.60;;;;;;4973357;28;20036;-73
2022/07/25 08:13:22;;;;;;;9.00;8.10;;;29.80;81.80;;;;;;4974948;28;20046;-73
2022/07/25 08:15:54;;;;;;;9.63;8.60;;;30.00;80.60;;;;;;4974973;28;20027;-73
2022/07/25 08:18:20;;;;;;;9.93;8.90;;;30.10;80.90;;;;;;4974895;28;20139;-73
2022/07/25 08:20:46;;;;;;;9.77;8.50;;;30.30;80.60;;;;;;4974916;28;20044;-73
2022/07/25 08:23:12;;;;;;;10.25;8.85;;;30.50;79.10;;;;;;4975073;28;20034;-73
2022/07/25 08:25:38;;;;;;;11.45;8.35;;;30.60;77.70;;;;;;4974917;28;20031;-74
2022/07/25 08:28:07;;;;;;;9.45;8.60;;;30.70;78.90;;;;;;4975146;28;20032;-74
2022/07/25 08:30:34;;;;;;;10.95;8.98;;;30.80;77.70;;;;;;4974556;28;20035;-74
2022/07/25 08:33:03;;;;;;;10.75;9.32;;;30.90;78.80;;;;;;4973198;28;20135;-74
2022/07/25 08:35:30;;;;;;;12.40;8.70;;;30.90;77.50;;;;;;4974565;28;20032;-74
2022/07/25 08:37:56;;;;;;;9.65;8.60;;;31.00;76.70;;;;;;4974985;28;20035;-74
2022/07/25 08:40:24;;;;;;;9.90;8.75;;;31.20;76.20;;;;;;4974368;28;20035;-74
2022/07/25 08:42:50;;;;;;;9.52;8.63;;;31.40;75.70;;;;;;4976016;28;20525;-74
2022/07/25 08:45:18;;;;;;;13.50;8.85;;;31.30;73.20;;;;;;4977801;28;20050;-74
2022/07/25 08:47:49;;;;;;;10.15;8.00;;;31.60;72.10;;;;;;4977900;28;20039;-74
2022/07/25 08:50:17;;;;;;;8.52;7.72;;;31.60;71.50;;;;;;4978071;28;20039;-74
2022/07/25 08:52:46;;;;;;;8.73;7.85;;;31.60;68.70;;;;;;4977770;28;20023;-74
2022/07/25 08:55:15;;;;;;;8.52;7.80;;;31.60;68.90;;;;;;4977790;28;20031;-74
2022/07/25 08:57:42;;;;;;;8.25;7.45;;;31.90;69.10;;;;;;4977684;28;20118;-74
2022/07/25 09:00:13;;;;;;;11.48;8.50;;;32.20;68.80;;;;;;4977625;28;20091;-74
2022/07/25 09:02:38;;;;;;;10.35;9.25;;;32.00;68.90;;;;;;4977638;28;20057;-74
2022/07/25 09:05:04;;;;;;;9.75;8.55;;;31.90;68.80;;;;;;4977677;28;20105;-74
2022/07/25 09:07:37;;;;;;;12.18;9.48;;;31.90;69.30;;;;;;4977670;28;20035;-74
2022/07/25 09:10:24;;;;;;;11.85;9.10;;;32.00;69.70;;;;;;4977766;28;20038;-74
2022/07/25 09:12:52;;;;;;;10.32;9.10;;;32.00;68.80;;;;;;4977833;28;20051;-74
2022/07/25 09:15:35;;;;;;;10.55;9.45;;;32.20;68.30;;;;;;4977429;28;20035;-74
2022/07/25 09:18:04;;;;;;;10.25;8.90;;;32.30;68.20;;;;;;4977549;28;20039;-74
2022/07/25 09:20:49;;;;;;;10.65;9.50;;;32.30;68.50;;;;;;4977299;28;20031;-75
2022/07/25 09:23:33;;;;;;;10.20;9.13;;;32.70;68.30;;;;;;4977214;28;20066;-75
2022/07/25 09:26:08;;;;;;;11.25;9.48;;;32.70;68.20;;;;;;4977545;28;20073;-75
2022/07/25 09:28:48;;;;;;;14.02;9.68;;;33.00;68.00;;;;;;4975778;28;20041;-75
2022/07/25 09:31:15;;;;;;;10.35;9.27;;;32.90;67.20;;;;;;4977199;28;20166;-75
2022/07/25 09:33:50;;;;;;;10.32;9.25;;;32.80;68.40;;;;;;4977620;28;20465;-75
2022/07/25 09:36:16;;;;;;;10.63;9.63;;;33.00;66.90;;;;;;4977325;28;20489;-75
2022/07/25 09:38:52;;;;;;;10.13;9.00;;;33.20;66.70;;;;;;4977464;28;20054;-75
2022/07/25 09:41:17;;;;;;;10.05;9.10;;;33.20;66.80;;;;;;4977038;28;20040;-75
2022/07/25 09:43:43;;;;;;;11.10;10.07;;;33.30;65.70;;;;;;4977287;28;20034;-75
2022/07/25 09:46:10;;;;;;;11.55;8.57;;;33.30;66.10;;;;;;4977165;28;20126;-75
2022/07/25 09:48:38;;;;;;;11.38;9.93;;;33.40;66.10;;;;;;4977182;28;20031;-74
2022/07/25 09:51:05;;;;;;;9.88;8.98;;;33.50;65.70;;;;;;4976853;28;20121;-75
2022/07/25 09:53:30;;;;;;;9.90;8.85;;;33.50;64.70;;;;;;4976266;28;20027;-74
2022/07/25 09:55:56;;;;;;;9.40;8.50;;;33.70;63.70;;;;;;4976459;28;20035;-75
2022/07/25 09:58:23;;;;;;;9.85;8.85;;;33.80;64.10;;;;;;4976919;28;20446;-74
2022/07/25 10:00:49;;;;;;;9.65;8.75;;;33.80;63.50;;;;;;4976569;28;20051;-74
2022/07/25 10:03:33;;;;;;;9.63;8.63;;;34.00;62.60;;;;;;4976969;28;20035;-74
2022/07/25 10:06:10;;;;;;;8.88;7.97;;;34.00;61.40;;;;;;4976859;28;20532;-74
2022/07/25 10:08:37;;;;;;;10.93;8.45;;;33.90;59.40;;;;;;4976807;28;20042;-74
2022/07/25 10:11:05;;;;;;;10.50;8.20;;;33.90;60.60;;;;;;4976500;28;20118;-74
2022/07/25 10:13:33;;;;;;;9.68;8.77;;;34.30;60.40;;;;;;4991490;23;20047;-74
2022/07/25 10:15:59;;;;;;;8.88;7.95;;;34.60;59.60;;;;;;4956794;28;20051;-74
2022/07/25 10:18:27;;;;;;;9.18;8.38;;;34.70;59.20;;;;;;4957161;28;20042;-72
2022/07/25 10:21:10;;;;;;;9.27;8.30;;;34.60;58.20;;;;;;4957404;28;20039;-73
2022/07/25 10:23:36;;;;;;;9.50;8.60;;;34.40;59.20;;;;;;4957429;28;20039;-71
2022/07/25 10:26:12;;;;;;;9.63;8.73;;;34.40;58.70;;;;;;4957432;28;20042;-71
2022/07/25 10:28:47;;;;;;;9.45;8.45;;;34.50;58.80;;;;;;4957142;28;20028;-71
2022/07/25 10:31:17;;;;;;;10.13;8.20;;;34.40;58.60;;;;;;4957546;28;20035;-71
2022/07/25 10:33:47;;;;;;;13.75;8.88;;;34.60;58.70;;;;;;4956922;28;20039;-74
2022/07/25 10:36:13;;;;;;;9.48;8.55;;;34.50;58.20;;;;;;4957012;28;20628;-74
2022/07/25 10:38:41;;;;;;;8.93;8.07;;;34.60;57.90;;;;;;4957332;28;20047;-71
2022/07/25 10:41:10;;;;;;;9.50;8.63;;;34.70;57.80;;;;;;4956993;28;20050;-71
2022/07/25 10:43:37;;;;;;;8.52;7.82;;;34.60;58.90;;;;;;4956876;28;20498;-71
2022/07/25 10:46:11;;;;;;;8.65;7.80;;;35.00;57.10;;;;;;4956925;28;20097;-72
2022/07/25 10:48:37;;;;;;;8.57;7.68;;;35.00;56.50;;;;;;4957277;28;20039;-71
2022/07/25 10:51:07;;;;;;;9.30;6.95;;;35.30;56.70;;;;;;4957207;28;20042;-71
2022/07/25 10:53:37;;;;;;;8.73;6.95;;;35.50;55.80;;;;;;4957060;28;20055;-71
2022/07/25 10:56:05;;;;;;;8.52;7.43;;;35.40;55.60;;;;;;4955323;28;20516;-71
2022/07/25 10:58:52;;;;;;;8.35;7.45;;;35.50;55.90;;;;;;4956734;28;20402;-71
2022/07/25 11:01:23;;;;;;;7.88;7.18;;;35.80;54.80;;;;;;4957100;28;20086;-73
2022/07/25 11:03:50;;;;;;;9.25;7.28;;;36.00;54.50;;;;;;4956562;28;20394;-71
2022/07/25 11:06:27;;;;;;;7.35;6.63;;;36.10;53.10;;;;;;4956434;28;20043;-77
2022/07/25 11:08:56;;;;;;;6.72;6.05;;;36.40;52.70;;;;;;4956983;28;20462;-73
2022/07/25 11:11:35;;;;;;;6.88;6.15;;;36.10;50.90;;;;;;4956785;28;20038;-73
2022/07/25 11:14:01;;;;;;;7.43;6.78;;;36.50;51.60;;;;;;4956066;28;20031;-77
2022/07/25 11:16:27;;;;;;;7.13;6.43;;;36.70;51.50;;;;;;4955238;28;20493;-73
2022/07/25 11:18:53;;;;;;;7.60;6.72;;;36.80;50.20;;;;;;4955140;28;20440;-73
2022/07/25 11:21:19;;;;;;;6.90;6.25;;;36.90;50.20;;;;;;4956272;28;20050;-74
2022/07/25 11:23:52;;;;;;;6.75;6.10;;;37.30;49.40;;;;;;4955763;28;20035;-73
2022/07/25 11:26:18;;;;;;;7.15;6.45;;;37.50;50.10;;;;;;4954828;28;20040;-73
2022/07/25 11:28:46;;;;;;;8.00;6.38;;;38.20;48.90;;;;;;4956886;28;20042;-74
2022/07/25 11:31:14;;;;;;;7.65;6.93;;;38.20;47.90;;;;;;4954958;28;20067;-74
2022/07/25 11:33:45;;;;;;;9.93;6.95;;;38.10;49.70;;;;;;4954474;28;20066;-75
2022/07/25 11:36:11;;;;;;;8.55;7.00;;;37.80;49.30;;;;;;4954554;28;20032;-74
2022/07/25 11:38:39;;;;;;;10.65;6.85;;;37.70;50.30;;;;;;4954872;28;20102;-74
2022/07/25 11:41:05;;;;;;;8.20;6.55;;;37.60;50.30;;;;;;4956205;28;20459;-75
2022/07/25 11:43:30;;;;;;;7.78;6.57;;;38.20;48.50;;;;;;4956258;28;20046;-74
2022/07/25 11:46:01;;;;;;;9.13;6.78;;;38.40;48.60;;;;;;4956065;28;20043;-73
2022/07/25 11:48:36;;;;;;;7.00;6.30;;;38.40;47.10;;;;;;4956131;28;20379;-74
2022/07/25 11:51:13;;;;;;;6.93;6.32;;;37.50;48.00;;;;;;4956200;28;20517;-75
2022/07/25 11:53:50;;;;;;;7.50;6.80;;;37.10;48.50;;;;;;4956347;28;20805;-74
2022/07/25 11:56:20;;;;;;;9.52;6.47;;;36.90;48.50;;;;;;4955721;28;20035;-75
2022/07/25 11:59:04;;;;;;;9.27;6.70;;;36.80;49.00;;;;;;4956065;28;20118;-75
2022/07/25 12:01:37;;;;;;;7.47;6.78;;;36.20;49.90;;;;;;4956204;28;20110;-74
2022/07/25 12:04:10;;;;;;;7.53;6.28;;;36.20;51.00;;;;;;4955691;28;20087;-74
2022/07/25 12:06:36;;;;;;;7.28;6.10;;;36.50;49.70;;;;;;4954313;28;20417;-75
2022/07/25 12:09:12;;;;;;;7.00;6.30;;;36.70;48.20;;;;;;4954076;28;20043;-74
2022/07/25 12:11:38;;;;;;;7.57;5.90;;;37.40;48.70;;;;;;4956238;28;20047;-74
2022/07/25 12:14:05;;;;;;;6.38;5.80;;;38.10;47.80;;;;;;4959436;28;20091;-75
2022/07/25 12:16:32;;;;;;;7.20;6.38;;;38.10;47.00;;;;;;4957049;28;20039;-76
2022/07/25 12:18:58;;;;;;;6.72;6.10;;;37.70;47.70;;;;;;4957477;28;20064;-75
2022/07/25 12:21:24;;;;;;;7.30;6.45;;;36.80;48.20;;;;;;4959024;28;20051;-75
2022/07/25 12:23:49;;;;;;;7.25;6.38;;;36.80;48.60;;;;;;4959791;28;20064;-75
2022/07/25 12:26:15;;;;;;;7.97;6.00;;;36.80;48.50;;;;;;4959943;28;20557;-75
2022/07/25 12:28:41;;;;;;;6.43;5.78;;;36.80;50.10;;;;;;4959154;28;20060;-75
2022/07/25 12:31:06;;;;;;;6.68;6.07;;;37.20;48.50;;;;;;4959475;28;20064;-76
2022/07/25 12:33:32;;;;;;;8.18;6.70;;;37.10;48.50;;;;;;4958920;28;20036;-75
2022/07/25 12:35:59;;;;;;;9.63;6.53;;;37.60;48.50;;;;;;4960342;28;20035;-76
2022/07/25 12:38:24;;;;;;;6.30;5.72;;;38.10;48.10;;;;;;4957716;28;20040;-75
2022/07/25 12:40:51;;;;;;;7.22;6.00;;;38.60;46.20;;;;;;4958668;28;20044;-74
2022/07/25 12:43:16;;;;;;;7.68;5.60;;;38.70;45.30;;;;;;4958784;28;20548;-74
2022/07/25 12:45:42;;;;;;;9.35;5.63;;;38.90;45.70;;;;;;4958713;28;20094;-74
2022/07/25 12:48:09;;;;;;;6.78;5.20;;;38.90;45.50;;;;;;4958657;28;20040;-74
2022/07/25 12:50:34;;;;;;;7.30;5.43;;;38.70;44.70;;;;;;4956972;28;20039;-74
2022/07/25 12:53:00;;;;;;;9.02;5.40;;;38.20;45.20;;;;;;4957049;28;20027;-74
2022/07/25 12:55:26;;;;;;;8.80;5.35;;;37.70;46.70;;;;;;4958301;28;20043;-74
2022/07/25 12:57:52;;;;;;;5.55;5.03;;;37.10;47.10;;;;;;4958552;28;20478;-75
2022/07/25 13:00:20;;;;;;;7.38;5.18;;;37.40;47.60;;;;;;4958776;28;20549;-74
2022/07/25 13:02:47;;;;;;;7.55;5.57;;;38.10;46.40;;;;;;4956802;28;20086;-76
2022/07/25 13:05:13;;;;;;;9.32;5.25;;;37.90;46.20;;;;;;4958266;28;20035;-74
2022/07/25 13:07:39;;;;;;;7.03;5.82;;;37.80;46.40;;;;;;4958397;28;20086;-76
2022/07/25 13:10:05;;;;;;;7.00;5.30;;;37.70;47.00;;;;;;4958512;28;20036;-74
2022/07/25 13:12:31;;;;;;;7.45;5.32;;;37.40;47.50;;;;;;4958466;28;20108;-74
2022/07/25 13:14:56;;;;;;;7.10;5.78;;;37.30;47.70;;;;;;4957876;28;20211;-74
2022/07/25 13:17:25;;;;;;;8.30;5.70;;;37.40;47.20;;;;;;4958359;28;20050;-74
2022/07/25 13:19:51;;;;;;;6.15;5.55;;;38.00;48.00;;;;;;4958063;28;20110;-74
2022/07/25 13:22:23;;;;;;;7.15;6.00;;;37.80;46.20;;;;;;4958307;28;20176;-78
2022/07/25 13:24:53;;;;;;;6.22;5.63;;;37.00;49.00;;;;;;4956336;28;20036;-74
2022/07/25 13:27:20;;;;;;;7.70;6.03;;;37.00;48.50;;;;;;4957888;28;20040;-77
2022/07/25 13:29:46;;;;;;;8.57;6.10;;;36.90;50.40;;;;;;4957894;28;20453;-76
2022/07/25 13:32:13;;;;;;;9.68;5.75;;;37.00;48.30;;;;;;4957805;28;20051;-74
2022/07/25 13:34:38;;;;;;;6.03;5.53;;;37.10;49.10;;;;;;4957846;28;20086;-74
2022/07/25 13:37:08;;;;;;;6.88;6.10;;;36.70;48.50;;;;;;4957720;28;20090;-74
2022/07/25 13:39:34;;;;;;;6.72;6.03;;;36.40;49.60;;;;;;4956605;28;20205;-75
2022/07/25 13:42:00;;;;;;;6.90;6.28;;;36.10;50.50;;;;;;4957967;28;20039;-74
2022/07/25 13:44:25;;;;;;;11.13;6.57;;;35.70;51.10;;;;;;4957504;28;20040;-78
2022/07/25 13:46:53;;;;;;;10.02;6.53;;;35.70;50.40;;;;;;4958239;28;20040;-75
2022/07/25 13:49:19;;;;;;;8.00;6.15;;;35.90;50.60;;;;;;4959479;28;20405;-76
2022/07/25 13:51:44;;;;;;;7.30;6.50;;;36.90;50.70;;;;;;4956498;28;20039;-75
2022/07/25 13:54:11;;;;;;;7.55;6.28;;;37.70;49.50;;;;;;4957528;28;20032;-75
2022/07/25 13:56:36;;;;;;;8.52;6.70;;;38.80;47.70;;;;;;4956462;28;20024;-75
2022/07/25 13:59:02;;;;;;;7.63;6.88;;;39.50;46.40;;;;;;4957701;28;20028;-75
2022/07/25 14:01:28;;;;;;;8.55;6.30;;;39.50;45.90;;;;;;4957334;28;20046;-75
2022/07/25 14:03:54;;;;;;;8.45;7.65;;;39.00;47.30;;;;;;4957398;28;20118;-74
2022/07/25 14:06:20;;;;;;;7.50;6.70;;;38.10;47.30;;;;;;4957153;28;20098;-75
2022/07/25 14:08:46;;;;;;;7.53;6.82;;;36.70;49.80;;;;;;4957559;28;20027;-75
2022/07/25 14:11:13;;;;;;;7.43;6.72;;;35.80;50.70;;;;;;4957899;28;20031;-75
2022/07/25 14:13:39;;;;;;;8.32;7.50;;;35.30;52.10;;;;;;4956825;28;20099;-76
2022/07/25 14:16:05;;;;;;;9.10;7.28;;;34.90;52.90;;;;;;4957076;28;20102;-75
2022/07/25 14:18:31;;;;;;;8.77;7.22;;;34.60;54.70;;;;;;4955565;28;20442;-76
2022/07/25 14:20:57;;;;;;;7.85;7.05;;;34.30;53.70;;;;;;4957275;28;20135;-76
2022/07/25 14:23:23;;;;;;;8.77;7.25;;;34.10;54.50;;;;;;4957220;28;20063;-75
2022/07/25 14:25:49;;;;;;;8.23;7.45;;;34.10;54.90;;;;;;4956954;28;20036;-75
2022/07/25 14:28:15;;;;;;;9.23;7.78;;;34.30;55.30;;;;;;4957160;28;20035;-76
2022/07/25 14:30:40;;;;;;;9.88;7.65;;;34.70;54.20;;;;;;4957183;28;20038;-76
2022/07/25 14:33:06;;;;;;;8.35;7.45;;;35.10;53.90;;;;;;4955478;28;20028;-76
2022/07/25 14:35:32;;;;;;;8.70;7.50;;;35.80;53.20;;;;;;4956865;28;20431;-76
2022/07/25 14:38:01;;;;;;;9.20;7.15;;;36.60;52.20;;;;;;4971835;28;20055;-76
2022/07/25 14:40:26;;;;;;;7.90;7.10;;;37.00;50.80;;;;;;4956712;28;20035;-75
2022/07/25 14:42:52;;;;;;;7.43;6.80;;;38.30;49.60;;;;;;4956809;28;20044;-75
2022/07/25 14:45:18;;;;;;;7.70;7.00;;;39.30;47.80;;;;;;4971548;28;20095;-75
2022/07/25 14:47:43;;;;;;;8.35;7.55;;;38.90;48.10;;;;;;4957012;28;20066;-76
2022/07/25 14:50:10;;;;;;;7.63;6.93;;;39.20;49.10;;;;;;4957040;28;20023;-75
2022/07/25 14:52:36;;;;;;;8.25;7.45;;;39.40;47.30;;;;;;4955509;28;20036;-75
2022/07/25 14:55:01;;;;;;;8.10;7.32;;;38.30;47.50;;;;;;4955295;28;20042;-75
2022/07/25 14:57:27;;;;;;;7.75;7.05;;;37.30;49.90;;;;;;4956998;28;20059;-75
2022/07/25 14:59:53;;;;;;;9.60;7.68;;;36.20;51.10;;;;;;4957004;28;20049;-75
2022/07/25 15:02:18;;;;;;;8.25;7.40;;;35.30;51.50;;;;;;4956511;28;20048;-75
2022/07/25 15:04:44;;;;;;;10.45;8.05;;;34.70;52.90;;;;;;4955764;28;20167;-74
2022/07/25 15:07:09;;;;;;;9.18;8.27;;;34.00;53.50;;;;;;4956520;28;20043;-74
2022/07/25 15:09:38;;;;;;;9.32;7.68;;;33.50;54.40;;;;;;4956400;28;20375;-74
2022/07/25 15:12:04;;;;;;;10.23;7.80;;;33.20;55.30;;;;;;4956667;28;20490;-74
2022/07/25 15:14:29;;;;;;;10.70;8.15;;;33.00;55.80;;;;;;4954422;28;20043;-74
2022/07/25 15:16:55;;;;;;;10.10;8.18;;;32.80;56.30;;;;;;4956711;28;20036;-73
2022/07/25 15:19:21;;;;;;;10.00;8.43;;;32.70;57.00;;;;;;4956871;28;20036;-78
2022/07/25 15:21:46;;;;;;;11.45;8.48;;;32.40;59.00;;;;;;4956353;28;20079;-74
2022/07/25 15:24:12;;;;;;;1.23;1.15;;;32.20;63.40;;;;;;4957018;28;20032;-79
2022/07/25 15:26:38;;;;;;;0.85;0.85;;;29.70;87.30;;;;;;4958216;28;20039;-79
2022/07/25 15:29:08;;;;;;;1.50;1.20;;;27.00;99.90;;;;;;4974781;28;20039;-80
2022/07/25 15:31:37;;;;;;;1.15;0.82;;;25.30;99.90;;;;;;4960201;28;20549;-82
2022/07/25 15:34:03;;;;;;;2.03;1.38;;;24.50;99.90;;;;;;4957086;28;20035;-82
2022/07/25 15:36:31;;;;;;;2.33;1.38;;;24.10;99.90;;;;;;4956073;28;20371;-81
2022/07/25 15:38:56;;;;;;;2.05;1.67;;;24.00;99.90;;;;;;4956656;28;20039;-83
2022/07/25 15:41:22;;;;;;;1.35;1.25;;;24.20;99.90;;;;;;4958854;28;20405;-82
2022/07/25 15:43:47;;;;;;;3.35;2.35;;;24.30;99.90;;;;;;4955119;28;20028;-81
2022/07/25 15:46:13;;;;;;;3.47;1.10;;;25.40;99.90;;;;;;4954853;28;20039;-79
2022/07/25 15:48:39;;;;;;;1.92;1.83;;;27.50;99.90;;;;;;4956583;28;20124;-79
2022/07/25 15:51:05;;;;;;;0.93;0.93;;;29.60;99.90;;;;;;4954815;28;20378;-80
2022/07/25 15:53:30;;;;;;;11.35;7.90;;;31.30;99.90;;;;;;4958308;28;20036;-80
2022/07/25 15:55:56;;;;;;;11.68;9.55;;;32.40;99.90;;;;;;4958117;28;20063;-79
2022/07/25 15:58:22;;;;;;;11.48;9.07;;;33.40;99.90;;;;;;4959936;28;20114;-79
2022/07/25 16:00:48;;;;;;;9.98;8.88;;;33.80;99.90;;;;;;4959622;28;20032;-79
2022/07/25 16:03:13;;;;;;;12.85;8.90;;;33.80;99.90;;;;;;4959278;28;20141;-78
2022/07/25 16:05:40;;;;;;;10.77;9.00;;;33.70;99.90;;;;;;4957891;28;20058;-80
2022/07/25 16:08:09;;;;;;;9.68;8.77;;;34.10;99.90;;;;;;4957800;28;20047;-79
2022/07/25 16:10:36;;;;;;;12.05;9.10;;;33.90;99.90;;;;;;4959525;28;20184;-79
2022/07/25 16:13:02;;;;;;;9.55;8.65;;;33.60;99.90;;;;;;4984338;23;20115;-75
2022/07/25 16:15:28;;;;;;;10.40;8.75;;;34.60;99.60;;;;;;4976509;28;20048;-81
2022/07/25 16:17:54;;;;;;;8.85;7.85;;;35.30;96.90;;;;;;4983848;28;20034;-83
2022/07/25 16:20:21;;;;;;;8.60;7.90;;;36.60;92.10;;;;;;4982398;28;20090;-73
2022/07/25 16:22:47;;;;;;;8.70;7.90;;;37.80;90.30;;;;;;4978752;28;20529;-75
2022/07/25 16:25:14;;;;;;;9.82;7.75;;;38.30;79.70;;;;;;4960299;28;20031;-82
2022/07/25 16:27:39;;;;;;;10.27;7.72;;;38.10;82.30;;;;;;4958787;28;20043;-74
2022/07/25 16:30:05;;;;;;;11.75;8.15;;;38.20;83.40;;;;;;4961266;28;20028;-74
2022/07/25 16:32:31;;;;;;;8.63;7.82;;;37.70;86.90;;;;;;4961259;28;20050;-77
2022/07/25 16:34:57;;;;;;;8.15;7.43;;;37.30;84.60;;;;;;4961783;28;20035;-79
2022/07/25 16:37:22;;;;;;;7.75;6.97;;;36.20;86.90;;;;;;4957529;28;20063;-76
2022/07/25 16:39:48;;;;;;;9.48;7.30;;;35.80;84.40;;;;;;4959334;28;20031;-77
2022/07/25 16:42:14;;;;;;;8.57;7.55;;;35.30;85.90;;;;;;4958267;28;20145;-75